createdAt,value
2017-11-14T00:02:21.021Z,99.90
2017-11-14T00:04:49.358Z,99.90
2017-11-14T00:07:17.728Z,99.90
2017-11-14T00:09:47.003Z,99.90
2017-11-14T00:12:15.395Z,99.90
2017-11-14T00:14:43.778Z,99.90
2017-11-14T00:17:12.125Z,99.90
2017-11-14T00:19:41.061Z,99.90
2017-11-14T00:22:08.724Z,99.90
2017-11-14T00:24:37.150Z,99.90
2017-11-14T00:27:05.742Z,99.90
2017-11-14T00:29:34.113Z,99.90
2017-11-14T00:32:02.492Z,99.90
2017-11-14T00:34:31.344Z,99.90
2017-11-14T00:37:00.615Z,99.90
2017-11-14T00:39:29.228Z,99.90
2017-11-14T00:41:58.676Z,99.90
2017-11-14T00:44:27.199Z,99.90
2017-11-14T00:46:55.750Z,99.90
2017-11-14T00:49:24.930Z,99.90
2017-11-14T00:51:56.527Z,99.90
2017-11-14T00:54:24.886Z,99.90
2017-11-14T00:56:53.749Z,99.90
2017-11-14T00:59:22.096Z,99.90
2017-11-14T01:01:50.679Z,99.90
2017-11-14T01:04:19.028Z,99.90
2017-11-14T01:06:49.206Z,99.90
2017-11-14T01:09:17.574Z,99.90
2017-11-14T01:11:45.922Z,99.90
2017-11-14T01:14:14.284Z,99.90
2017-11-14T01:16:42.705Z,99.90
2017-11-14T01:19:11.282Z,99.90
2017-11-14T01:21:40.365Z,99.90
2017-11-14T01:24:09.534Z,99.90
2017-11-14T01:26:38.820Z,99.90
2017-11-14T01:29:07.390Z,99.90
2017-11-14T01:31:35.836Z,99.90
2017-11-14T01:34:03.974Z,99.90
2017-11-14T01:36:32.338Z,99.90
2017-11-14T01:39:01.001Z,99.90
2017-11-14T01:41:29.778Z,99.90
2017-11-14T01:43:58.881Z,99.90
2017-11-14T01:46:27.222Z,99.90
2017-11-14T01:48:55.846Z,99.90
2017-11-14T01:51:24.206Z,99.90
2017-11-14T01:53:53.399Z,99.90
2017-11-14T01:56:26.384Z,99.90
2017-11-14T01:58:55.708Z,99.90
2017-11-14T02:01:24.812Z,99.90
2017-11-14T02:03:54.382Z,99.90
2017-11-14T02:06:22.072Z,99.90
2017-11-14T02:08:51.217Z,99.90
2017-11-14T02:11:19.284Z,99.90
2017-11-14T02:13:48.497Z,99.90
2017-11-14T02:16:17.402Z,99.90
2017-11-14T02:18:45.847Z,99.90
2017-11-14T02:21:14.190Z,99.90
2017-11-14T02:23:42.221Z,99.90
2017-11-14T02:26:11.775Z,99.90
2017-11-14T02:28:42.029Z,99.90
2017-11-14T02:31:10.470Z,99.90
2017-11-14T02:33:38.578Z,99.90
2017-11-14T02:36:06.854Z,99.90
2017-11-14T02:38:35.504Z,99.90
2017-11-14T02:41:03.622Z,99.90
2017-11-14T02:43:32.132Z,99.90
2017-11-14T02:45:59.880Z,99.90
2017-11-14T02:48:28.810Z,99.90
2017-11-14T02:50:57.417Z,99.90
2017-11-14T02:53:25.686Z,99.90
2017-11-14T02:55:53.841Z,99.90
2017-11-14T02:58:22.974Z,99.90
2017-11-14T03:00:52.355Z,99.90
2017-11-14T03:03:20.753Z,99.90
2017-11-14T03:05:49.827Z,99.90
2017-11-14T03:08:18.200Z,99.90
2017-11-14T03:10:46.578Z,99.90
2017-11-14T03:13:15.169Z,99.90
2017-11-14T03:15:43.662Z,99.90
2017-11-14T03:18:12.023Z,99.90
2017-11-14T03:20:40.387Z,99.90
2017-11-14T03:23:08.410Z,99.90
2017-11-14T03:25:36.773Z,99.90
2017-11-14T03:28:04.774Z,99.90
2017-11-14T03:30:32.791Z,99.90
2017-11-14T03:33:01.449Z,99.90
2017-11-14T03:35:30.945Z,99.90
2017-11-14T03:37:59.527Z,99.90
2017-11-14T03:40:28.561Z,99.90
2017-11-14T03:42:57.101Z,99.90
2017-11-14T03:45:25.516Z,99.90
2017-11-14T03:47:54.095Z,99.90
2017-11-14T03:50:21.749Z,99.90
2017-11-14T03:52:50.463Z,99.90
2017-11-14T03:55:18.806Z,99.90
2017-11-14T03:57:47.171Z,99.90
2017-11-14T04:00:15.403Z,99.90
2017-11-14T04:02:44.209Z,99.90
2017-11-14T04:05:12.560Z,99.90
2017-11-14T04:07:40.964Z,99.90
2017-11-14T04:10:09.145Z,99.90
2017-11-14T04:12:37.226Z,99.90
2017-11-14T04:15:05.602Z,99.90
2017-11-14T04:17:33.965Z,99.90
2017-11-14T04:20:02.417Z,99.90
2017-11-14T04:22:30.762Z,99.90
2017-11-14T04:24:59.124Z,99.90
2017-11-14T04:27:27.479Z,99.90
2017-11-14T04:29:56.070Z,99.90
2017-11-14T04:32:24.684Z,99.90
2017-11-14T04:34:53.198Z,99.90
2017-11-14T04:37:21.640Z,99.90
2017-11-14T04:39:50.011Z,99.90
2017-11-14T04:42:18.396Z,99.90
2017-11-14T04:44:47.019Z,99.90
2017-11-14T04:47:15.380Z,99.90
2017-11-14T04:49:43.756Z,99.90
2017-11-14T04:52:12.163Z,99.90
2017-11-14T04:54:41.052Z,99.90
2017-11-14T04:57:09.608Z,99.90
2017-11-14T04:59:37.985Z,99.90
2017-11-14T05:02:06.463Z,99.90
2017-11-14T05:04:35.062Z,99.90
2017-11-14T05:07:03.518Z,99.90
2017-11-14T05:09:31.549Z,99.90
2017-11-14T05:11:59.908Z,99.90
2017-11-14T05:14:28.557Z,99.90
2017-11-14T05:16:57.183Z,99.90
2017-11-14T05:19:25.620Z,99.90
2017-11-14T05:21:54.081Z,99.90
2017-11-14T05:24:22.272Z,99.90
2017-11-14T05:26:50.641Z,99.90
2017-11-14T05:29:19.691Z,99.90
2017-11-14T05:31:48.092Z,99.90
2017-11-14T05:34:16.517Z,99.90
2017-11-14T05:36:44.915Z,99.90
2017-11-14T05:39:13.292Z,99.90
2017-11-14T05:41:41.671Z,99.90
2017-11-14T05:44:10.078Z,99.90
2017-11-14T05:46:38.662Z,99.90
2017-11-14T05:49:07.114Z,99.90
2017-11-14T05:51:35.485Z,99.90
2017-11-14T05:54:03.852Z,99.90
2017-11-14T05:56:33.428Z,99.90
2017-11-14T05:59:01.885Z,99.90
2017-11-14T06:01:30.245Z,99.90
2017-11-14T06:03:59.419Z,99.90
2017-11-14T06:06:27.797Z,99.90
2017-11-14T06:08:56.408Z,99.90
2017-11-14T06:11:24.792Z,99.90
2017-11-14T06:13:54.908Z,99.90
2017-11-14T06:16:23.282Z,99.90
2017-11-14T06:18:51.643Z,99.90
2017-11-14T06:21:20.283Z,99.90
2017-11-14T06:23:48.647Z,99.90
2017-11-14T06:26:17.306Z,99.90
2017-11-14T06:28:46.787Z,99.90
2017-11-14T06:31:15.677Z,99.90
2017-11-14T06:33:44.840Z,99.90
2017-11-14T06:36:13.448Z,99.90
2017-11-14T06:38:41.984Z,99.90
2017-11-14T06:41:10.438Z,99.90
2017-11-14T06:43:38.803Z,99.90
2017-11-14T06:46:07.686Z,99.90
2017-11-14T06:48:36.848Z,99.90
2017-11-14T06:51:05.854Z,99.90
2017-11-14T06:53:34.363Z,99.90
2017-11-14T06:56:03.698Z,99.90
2017-11-14T06:58:32.214Z,99.90
2017-11-14T07:01:00.594Z,99.90
2017-11-14T07:03:29.974Z,99.90
2017-11-14T07:05:58.533Z,99.90
2017-11-14T07:08:27.869Z,99.90
2017-11-14T07:10:56.441Z,99.90
2017-11-14T07:13:24.786Z,99.90
2017-11-14T07:15:53.156Z,99.90
2017-11-14T07:18:22.024Z,99.90
2017-11-14T07:20:50.397Z,99.90
2017-11-14T07:23:18.579Z,99.90
2017-11-14T07:25:46.773Z,99.90
2017-11-14T07:28:15.152Z,99.90
2017-11-14T07:30:43.528Z,99.90
2017-11-14T07:33:13.067Z,99.90
2017-11-14T07:35:41.714Z,99.90
2017-11-14T07:38:10.442Z,99.90
2017-11-14T07:40:39.025Z,99.90
2017-11-14T07:43:07.378Z,99.90
2017-11-14T07:45:35.904Z,99.90
2017-11-14T07:48:05.580Z,99.90
2017-11-14T07:50:33.962Z,99.90
2017-11-14T07:53:02.325Z,99.90
2017-11-14T07:55:30.711Z,99.90
2017-11-14T07:57:59.328Z,99.90
2017-11-14T08:00:27.695Z,99.90
2017-11-14T08:02:56.111Z,99.90
2017-11-14T08:05:24.731Z,99.90
2017-11-14T08:07:53.108Z,99.90
2017-11-14T08:10:21.474Z,99.90
2017-11-14T08:12:50.381Z,99.90
2017-11-14T08:15:18.825Z,99.90
2017-11-14T08:17:47.179Z,99.90
2017-11-14T08:20:15.889Z,99.90
2017-11-14T08:22:45.494Z,99.90
2017-11-14T08:25:14.006Z,99.90
2017-11-14T08:27:43.176Z,99.90
2017-11-14T08:30:11.765Z,99.90
2017-11-14T08:32:40.141Z,99.90
2017-11-14T08:35:09.316Z,99.90
2017-11-14T08:37:37.704Z,99.90
2017-11-14T08:40:06.080Z,99.90
2017-11-14T08:42:34.460Z,99.90
2017-11-14T08:45:02.828Z,99.90
2017-11-14T08:47:31.204Z,99.90
2017-11-14T08:49:59.777Z,99.90
2017-11-14T08:52:28.152Z,99.90
2017-11-14T08:54:56.595Z,99.90
2017-11-14T08:57:24.969Z,99.90
2017-11-14T08:59:53.336Z,99.90
2017-11-14T09:02:21.710Z,99.90
2017-11-14T09:04:50.073Z,99.90
2017-11-14T09:07:18.855Z,99.90
2017-11-14T09:09:46.863Z,99.90
2017-11-14T09:12:14.921Z,99.90
2017-11-14T09:14:42.623Z,99.90
2017-11-14T09:17:10.985Z,99.90
2017-11-14T09:19:38.650Z,99.90
2017-11-14T09:22:06.483Z,99.90
2017-11-14T09:24:35.331Z,99.90
2017-11-14T09:27:04.495Z,99.90
2017-11-14T09:29:32.494Z,99.90
2017-11-14T09:32:00.163Z,99.90
2017-11-14T09:34:27.880Z,99.90
2017-11-14T09:36:55.912Z,99.90
2017-11-14T09:39:24.046Z,99.90
2017-11-14T09:41:51.739Z,99.90
2017-11-14T09:44:19.396Z,99.90
2017-11-14T09:46:47.787Z,99.90
2017-11-14T09:49:16.223Z,99.90
2017-11-14T09:51:44.258Z,99.90
2017-11-14T09:54:11.957Z,99.90
2017-11-14T09:56:39.654Z,99.90
2017-11-14T09:59:07.684Z,99.90
2017-11-14T10:01:35.755Z,99.90
2017-11-14T10:04:03.425Z,99.90
2017-11-14T10:06:31.657Z,99.90
2017-11-14T10:09:00.069Z,99.90
2017-11-14T10:11:28.203Z,99.90
2017-11-14T10:13:57.307Z,99.90
2017-11-14T10:16:25.321Z,99.90
2017-11-14T10:18:53.343Z,99.90
2017-11-14T10:21:21.401Z,99.90
2017-11-14T10:23:49.428Z,99.90
2017-11-14T10:26:17.877Z,99.90
2017-11-14T10:28:46.251Z,99.90
2017-11-14T10:31:14.824Z,99.90
2017-11-14T10:33:43.497Z,99.90
2017-11-14T10:36:12.140Z,99.90
2017-11-14T10:38:39.807Z,99.90
2017-11-14T10:41:07.885Z,99.90
2017-11-14T10:43:35.894Z,99.90
2017-11-14T10:46:04.136Z,99.90
2017-11-14T10:48:31.821Z,99.90
2017-11-14T10:50:59.850Z,99.90
2017-11-14T10:53:27.615Z,99.90
2017-11-14T10:55:55.294Z,99.90
2017-11-14T10:58:22.993Z,99.90
2017-11-14T11:00:51.517Z,99.90
2017-11-14T11:03:19.242Z,99.90
2017-11-14T11:05:48.025Z,99.90
2017-11-14T11:08:16.027Z,99.90
2017-11-14T11:10:43.692Z,99.90
2017-11-14T11:13:11.372Z,99.90
2017-11-14T11:15:39.061Z,99.90
2017-11-14T11:18:06.729Z,99.90
2017-11-14T11:20:36.052Z,99.90
2017-11-14T11:23:03.826Z,99.90
2017-11-14T11:25:32.060Z,99.90
2017-11-14T11:28:00.523Z,99.90
2017-11-14T11:30:28.872Z,99.90
2017-11-14T11:32:56.977Z,99.90
2017-11-14T11:35:25.444Z,99.90
2017-11-14T11:37:54.258Z,99.90
2017-11-14T11:40:22.018Z,99.90
2017-11-14T11:42:50.013Z,99.90
2017-11-14T11:45:17.695Z,99.90
2017-11-14T11:47:45.452Z,99.90
2017-11-14T11:50:13.460Z,99.90
2017-11-14T11:52:41.983Z,99.90
2017-11-14T11:55:09.654Z,99.90
2017-11-14T11:57:37.335Z,99.90
2017-11-14T12:00:05.269Z,99.90
2017-11-14T12:02:32.943Z,99.90
2017-11-14T12:05:01.284Z,99.90
2017-11-14T12:07:28.983Z,99.90
2017-11-14T12:09:57.593Z,99.90
2017-11-14T12:12:26.038Z,99.90
2017-11-14T12:14:53.704Z,99.90
2017-11-14T12:17:24.709Z,99.90
2017-11-14T12:19:52.380Z,99.90
2017-11-14T12:22:21.639Z,99.90
2017-11-14T12:24:50.335Z,99.90
2017-11-14T12:27:18.355Z,99.90
2017-11-14T12:29:46.360Z,99.90
2017-11-14T12:32:15.141Z,99.90
2017-11-14T12:34:43.147Z,99.90
2017-11-14T12:37:11.477Z,99.60
2017-11-14T12:39:39.146Z,99.70
2017-11-14T12:42:07.147Z,97.90
2017-11-14T12:44:35.576Z,98.50
2017-11-14T12:47:05.082Z,98.90
2017-11-14T12:49:33.404Z,98.90
2017-11-14T12:52:01.737Z,98.30
2017-11-14T12:54:30.508Z,97.60
2017-11-14T12:56:58.849Z,97.50
2017-11-14T12:59:27.181Z,97.40
2017-11-14T13:01:55.964Z,97.10
2017-11-14T13:04:24.574Z,97.10
2017-11-14T13:06:53.256Z,97.00
2017-11-14T13:09:21.587Z,97.50
2017-11-14T13:11:50.723Z,97.90
2017-11-14T13:14:19.964Z,98.00
2017-11-14T13:16:48.296Z,97.20
2017-11-14T13:19:16.652Z,96.90
2017-11-14T13:21:45.151Z,96.80
2017-11-14T13:24:13.485Z,95.30
2017-11-14T13:26:41.932Z,94.80
2017-11-14T13:29:10.289Z,95.60
2017-11-14T13:31:38.630Z,95.70
2017-11-14T13:34:07.055Z,95.70
2017-11-14T13:36:35.416Z,95.70
2017-11-14T13:39:03.429Z,96.00
2017-11-14T13:41:31.786Z,95.90
2017-11-14T13:44:00.107Z,96.30
2017-11-14T13:46:28.299Z,96.90
2017-11-14T13:48:56.632Z,96.40
2017-11-14T13:51:25.742Z,96.60
2017-11-14T13:53:54.085Z,96.30
2017-11-14T13:56:22.412Z,96.60
2017-11-14T13:58:50.771Z,96.60
2017-11-14T14:01:19.581Z,96.50
2017-11-14T14:03:52.836Z,96.50
2017-11-14T14:06:25.069Z,96.40
2017-11-14T14:08:57.698Z,96.90
2017-11-14T14:11:30.019Z,97.10
2017-11-14T14:14:03.537Z,97.00
2017-11-14T14:16:36.032Z,97.40
2017-11-14T14:19:07.778Z,97.60
2017-11-14T14:21:40.983Z,97.80
2017-11-14T14:24:13.843Z,98.30
2017-11-14T14:26:46.392Z,98.60
2017-11-14T14:29:18.914Z,98.70
2017-11-14T14:31:51.789Z,98.70
2017-11-14T14:34:24.470Z,98.60
2017-11-14T14:36:57.627Z,98.50
2017-11-14T14:39:31.116Z,99.20
2017-11-14T14:42:04.725Z,99.10
2017-11-14T14:44:37.005Z,99.10
2017-11-14T14:47:09.440Z,99.10
2017-11-14T14:49:37.765Z,99.20
2017-11-14T14:52:06.110Z,99.20
2017-11-14T14:54:34.447Z,99.20
2017-11-14T14:57:02.783Z,99.40
2017-11-14T14:59:31.168Z,99.30
2017-11-14T15:01:59.498Z,99.60
2017-11-14T15:04:27.827Z,99.80
2017-11-14T15:06:56.157Z,99.90
2017-11-14T15:09:24.929Z,99.90
2017-11-14T15:11:53.251Z,99.90
2017-11-14T15:14:21.628Z,99.90
2017-11-14T15:16:49.974Z,99.90
2017-11-14T15:19:18.308Z,99.90
2017-11-14T15:21:46.696Z,99.90
2017-11-14T15:24:15.041Z,99.90
2017-11-14T15:26:43.578Z,99.90
2017-11-14T15:29:11.908Z,99.90
2017-11-14T15:31:40.235Z,99.90
2017-11-14T15:34:08.580Z,99.90
2017-11-14T15:36:36.924Z,99.90
2017-11-14T15:39:04.965Z,99.90
2017-11-14T15:41:34.065Z,99.90
2017-11-14T15:44:02.408Z,99.90
2017-11-14T15:46:30.731Z,99.90
2017-11-14T15:48:59.107Z,99.90
2017-11-14T15:51:27.473Z,99.90
2017-11-14T15:53:56.834Z,99.90
2017-11-14T15:56:25.452Z,99.90
2017-11-14T15:58:53.786Z,99.90
2017-11-14T16:01:22.118Z,99.90
2017-11-14T16:03:50.468Z,99.90
2017-11-14T16:06:18.798Z,99.90
2017-11-14T16:08:47.126Z,99.90
2017-11-14T16:11:15.503Z,99.90
2017-11-14T16:13:43.254Z,99.90
2017-11-14T16:16:11.595Z,99.90
2017-11-14T16:18:40.077Z,99.90
2017-11-14T16:21:08.080Z,99.90
2017-11-14T16:23:36.433Z,99.90
2017-11-14T16:26:04.976Z,99.90
2017-11-14T16:28:33.424Z,99.90
2017-11-14T16:31:01.516Z,99.90
2017-11-14T16:33:29.671Z,99.90
2017-11-14T16:35:58.012Z,99.90
2017-11-14T16:38:26.362Z,99.90
2017-11-14T16:40:56.422Z,99.90
2017-11-14T16:43:25.052Z,99.90
2017-11-14T16:45:53.377Z,99.90
2017-11-14T16:48:22.737Z,99.90
2017-11-14T16:50:51.271Z,99.90
2017-11-14T16:53:19.616Z,99.90
2017-11-14T16:55:47.972Z,99.90
2017-11-14T16:58:16.315Z,99.90
2017-11-14T17:00:44.314Z,99.90
2017-11-14T17:03:12.680Z,99.90
2017-11-14T17:05:40.999Z,99.90
2017-11-14T17:08:09.330Z,99.90
2017-11-14T17:10:37.114Z,99.90
2017-11-14T17:13:04.906Z,99.90
2017-11-14T17:15:33.243Z,99.90
2017-11-14T17:18:02.337Z,99.90
2017-11-14T17:20:30.693Z,99.90
2017-11-14T17:22:59.033Z,99.90
2017-11-14T17:25:30.713Z,99.90
2017-11-14T17:28:00.160Z,99.90
2017-11-14T17:30:31.139Z,99.90
2017-11-14T17:33:02.545Z,99.90
2017-11-14T17:35:30.888Z,99.90
2017-11-14T17:38:01.066Z,99.90
2017-11-14T17:40:32.071Z,99.90
2017-11-14T17:43:00.733Z,99.90
2017-11-14T17:45:32.820Z,99.90
2017-11-14T17:48:03.088Z,99.90
2017-11-14T17:50:34.815Z,99.90
2017-11-14T17:53:05.535Z,99.90
2017-11-14T17:55:35.887Z,99.90
2017-11-14T17:58:05.906Z,99.90
2017-11-14T18:00:36.462Z,99.90
2017-11-14T18:03:06.650Z,99.90
2017-11-14T18:21:41.297Z,99.90
2017-11-14T18:24:12.530Z,99.90
2017-11-14T18:26:40.879Z,99.90
2017-11-14T18:29:09.231Z,99.90
2017-11-14T18:31:37.593Z,99.90
2017-11-14T18:34:05.953Z,99.90
2017-11-14T18:36:34.283Z,99.90
2017-11-14T18:39:02.988Z,99.90
2017-11-14T18:41:31.323Z,99.90
2017-11-14T18:43:59.655Z,99.90
2017-11-14T18:46:28.216Z,99.90
2017-11-14T18:48:56.643Z,99.90
2017-11-14T18:51:25.065Z,99.90
2017-11-14T18:53:54.237Z,99.90
2017-11-14T18:56:22.755Z,99.90
2017-11-14T18:58:51.155Z,99.90
2017-11-14T19:01:19.612Z,99.90
2017-11-14T19:03:47.723Z,99.90
2017-11-14T19:06:16.087Z,99.90
2017-11-14T19:08:44.880Z,99.90
2017-11-14T19:11:13.214Z,99.90
2017-11-14T19:13:42.341Z,99.90
2017-11-14T19:16:10.705Z,99.90
2017-11-14T19:18:39.057Z,99.90
2017-11-14T19:21:07.430Z,99.90
2017-11-14T19:23:35.754Z,99.90
2017-11-14T19:26:04.868Z,99.90
2017-11-14T19:28:38.031Z,99.90
2017-11-14T19:31:06.403Z,99.90
2017-11-14T19:33:39.426Z,99.90
2017-11-14T19:36:10.532Z,99.90
2017-11-14T19:38:42.853Z,99.90
2017-11-14T19:41:14.986Z,99.90
2017-11-14T19:43:48.148Z,99.90
2017-11-14T19:46:20.857Z,99.90
2017-11-14T19:48:53.031Z,99.90
2017-11-14T19:51:25.203Z,99.90
2017-11-14T19:53:58.851Z,99.90
2017-11-14T19:56:32.279Z,99.90
2017-11-14T19:59:05.285Z,99.90
2017-11-14T20:01:38.054Z,99.90
2017-11-14T20:04:10.321Z,99.90
2017-11-14T20:06:44.531Z,99.90
2017-11-14T20:09:17.291Z,99.90
2017-11-14T20:11:48.020Z,99.90
2017-11-14T20:14:20.255Z,99.90
2017-11-14T20:16:48.420Z,99.90
2017-11-14T20:19:17.754Z,99.90
2017-11-14T20:21:46.022Z,99.90
2017-11-14T20:24:14.364Z,99.90
2017-11-14T20:26:47.133Z,99.90
2017-11-14T20:29:19.980Z,99.90
2017-11-14T20:31:48.340Z,99.90
2017-11-14T20:34:20.352Z,99.90
2017-11-14T20:36:54.017Z,99.90
2017-11-14T20:39:24.672Z,99.90
2017-11-14T20:41:56.453Z,99.90
2017-11-14T20:44:29.179Z,99.90
2017-11-14T20:47:02.165Z,99.90
2017-11-14T20:49:35.439Z,99.90
2017-11-14T20:52:04.107Z,99.90
2017-11-14T20:54:32.447Z,99.90
2017-11-14T20:57:01.437Z,99.90
2017-11-14T20:59:34.163Z,99.90
2017-11-14T21:02:06.865Z,99.90
2017-11-14T21:04:37.944Z,99.90
2017-11-14T21:07:10.981Z,99.90
2017-11-14T21:09:43.486Z,99.90
2017-11-14T21:12:17.206Z,99.90
2017-11-14T21:14:49.620Z,99.90
2017-11-14T21:17:22.119Z,99.90
2017-11-14T21:19:55.249Z,99.90
2017-11-14T21:22:26.725Z,99.90
2017-11-14T21:24:58.518Z,99.90
2017-11-14T21:27:30.861Z,99.90
2017-11-14T21:30:02.086Z,99.90
2017-11-14T21:32:34.713Z,99.90
2017-11-14T21:35:07.263Z,99.90
2017-11-14T21:37:40.093Z,99.90
2017-11-14T21:40:08.435Z,99.90
2017-11-14T21:42:37.028Z,99.90
2017-11-14T21:45:05.396Z,99.90
2017-11-14T21:47:33.729Z,99.90
2017-11-14T21:50:02.387Z,99.90
2017-11-14T21:52:30.778Z,99.90
2017-11-14T21:54:59.139Z,99.90
2017-11-14T21:57:27.509Z,99.90
2017-11-14T21:59:56.006Z,99.90
2017-11-14T22:02:24.682Z,99.90
2017-11-14T22:04:53.558Z,99.90
2017-11-14T22:07:22.091Z,99.90
2017-11-14T22:09:51.338Z,99.90
2017-11-14T22:12:20.196Z,99.90
2017-11-14T22:14:48.554Z,99.90
2017-11-14T22:17:16.931Z,99.90
2017-11-14T22:19:45.460Z,99.90
2017-11-14T22:22:13.839Z,99.90
2017-11-14T22:24:42.519Z,99.90
2017-11-14T22:27:10.891Z,99.90
2017-11-14T22:29:39.232Z,99.90
2017-11-14T22:32:08.569Z,99.90
2017-11-14T22:34:36.939Z,99.90
2017-11-14T22:37:05.152Z,99.90
2017-11-14T22:39:33.501Z,99.90
2017-11-14T22:42:01.658Z,99.90
2017-11-14T22:44:30.760Z,99.90
2017-11-14T22:46:59.327Z,99.90
2017-11-14T22:49:27.824Z,99.90
2017-11-14T22:51:56.170Z,99.90
2017-11-14T22:54:24.597Z,99.90
2017-11-14T22:56:53.241Z,99.90
2017-11-14T22:59:21.581Z,99.90
2017-11-14T23:01:50.682Z,99.90
2017-11-14T23:04:19.004Z,99.90
2017-11-14T23:06:47.359Z,99.90
2017-11-14T23:09:15.735Z,99.90
2017-11-14T23:11:44.062Z,99.90
2017-11-14T23:14:12.384Z,99.90
2017-11-14T23:16:40.717Z,99.90
2017-11-14T23:19:09.076Z,99.90
2017-11-14T23:21:37.596Z,99.90
2017-11-14T23:24:05.998Z,99.90
2017-11-14T23:26:34.367Z,99.90
2017-11-14T23:29:02.695Z,99.90
2017-11-14T23:31:31.228Z,99.90
2017-11-14T23:33:59.558Z,99.90
2017-11-14T23:36:28.646Z,99.90
2017-11-14T23:38:59.653Z,99.90
2017-11-14T23:41:28.246Z,99.90
2017-11-14T23:43:56.685Z,99.90
2017-11-14T23:46:25.020Z,99.90
2017-11-14T23:48:53.365Z,99.90
2017-11-14T23:51:21.697Z,99.90
2017-11-14T23:53:49.981Z,99.90
2017-11-14T23:56:18.358Z,99.90
2017-11-14T23:58:46.676Z,99.90
